Time;durP1;ratioP1;P1;durP2;ratioP2;P2;SDS_P1;SDS_P2;PMS_P1;PMS_P2;Temp;Humidity;BMP_temperature;BMP_pressure;BME280_temperature;BME280_humidity;BME280_pressure;Samples;Min_cycle;Max_cycle;Signal;HPM_P1;HPM_P2
2023/05/25 00:02:53;;;;;;;4.80;3.50;;;;;;;22.49;57.34;100665.00;5018700;28;20045;-76
2023/05/25 00:05:48;;;;;;;6.70;4.28;;;;;;;22.23;57.19;100663.41;5015690;28;20064;-76
2023/05/25 00:08:40;;;;;;;4.40;3.00;;;;;;;22.18;58.44;100674.88;5014416;28;20049;-76
2023/05/25 00:11:35;;;;;;;6.82;4.30;;;;;;;21.91;58.62;100674.41;5017278;28;20049;-76
2023/05/25 00:14:29;;;;;;;6.55;3.88;;;;;;;21.40;59.60;100679.41;5015032;28;20401;-76
2023/05/25 00:17:24;;;;;;;6.28;3.55;;;;;;;20.95;62.12;100694.56;5018910;28;20401;-75
2023/05/25 00:20:16;;;;;;;10.30;4.85;;;;;;;21.60;63.14;100703.59;5016385;28;20044;-75
2023/05/25 00:23:11;;;;;;;13.32;7.35;;;;;;;20.89;68.34;100708.75;5014286;28;20052;-76
2023/05/25 00:26:05;;;;;;;29.38;7.75;;;;;;;20.64;77.81;100712.50;5014108;28;20041;-75
2023/05/25 00:29:00;;;;;;;32.67;9.63;;;;;;;20.07;84.59;100723.81;5015150;28;20048;-75
2023/05/25 00:31:55;;;;;;;12.60;7.32;;;;;;;19.97;84.48;100721.75;5018449;28;20038;-74
2023/05/25 00:34:49;;;;;;;27.55;7.93;;;;;;;20.35;86.45;100728.06;5013222;28;20508;-74
2023/05/25 00:37:44;;;;;;;20.63;7.32;;;;;;;20.26;78.34;100728.38;4999393;28;20046;-74
2023/05/25 00:40:38;;;;;;;22.17;6.65;;;;;;;20.26;82.90;100736.66;5002339;28;20433;-74
2023/05/25 00:43:33;;;;;;;22.63;8.60;;;;;;;20.59;79.26;100740.50;5015516;28;20405;-75
2023/05/25 00:46:28;;;;;;;80.75;12.02;;;;;;;20.97;79.29;100741.97;5012986;28;20045;-75
2023/05/25 00:49:21;;;;;;;29.15;6.75;;;;;;;20.85;74.22;100737.56;5001421;28;20041;-74
2023/05/25 00:52:17;;;;;;;57.97;10.75;;;;;;;21.06;75.84;100734.13;5014018;28;20042;-75
2023/05/25 00:55:13;;;;;;;25.58;7.85;;;;;;;20.96;71.20;100726.56;5012787;28;20428;-75
2023/05/25 00:58:06;;;;;;;129.00;17.50;;;;;;;21.41;69.84;100731.59;5000127;28;20049;-74
2023/05/25 01:13:21;;;;;;;16.60;4.95;;;;;;;21.12;67.28;100755.53;5012642;28;20042;-74
2023/05/25 01:16:15;;;;;;;44.85;9.57;;;;;;;21.41;68.26;100755.69;5012200;28;20053;-74
2023/05/25 01:19:10;;;;;;;61.20;10.00;;;;;;;21.31;69.12;100757.22;5014123;28;20045;-74
2023/05/25 01:22:09;;;;;;;49.97;9.45;;;;;;;21.50;67.90;100758.91;5017381;28;20493;-74
2023/05/25 01:25:15;;;;;;;64.57;10.13;;;;;;;21.89;64.98;100757.06;5014927;28;20041;-74
2023/05/25 01:28:12;;;;;;;41.13;8.75;;;;;;;21.99;64.92;100748.03;5002954;28;20490;-74
2023/05/25 01:31:08;;;;;;;50.28;10.43;;;;;;;22.20;63.30;100746.53;5000458;28;20041;-74
2023/05/25 01:34:03;;;;;;;32.80;8.15;;;;;;;22.05;64.34;100737.38;4997903;28;20034;-74
2023/05/25 01:36:58;;;;;;;56.90;8.55;;;;;;;22.20;62.80;100741.00;5001619;28;20045;-74
2023/05/25 01:39:52;;;;;;;49.25;7.10;;;;;;;22.32;62.50;100746.13;4999335;28;20041;-74
2023/05/25 01:42:47;;;;;;;29.88;5.97;;;;;;;22.14;62.96;100755.22;5017461;28;20046;-74
2023/05/25 01:45:41;;;;;;;34.03;7.70;;;;;;;22.29;62.13;100750.50;5012129;28;20527;-74
2023/05/25 01:48:45;;;;;;;26.15;4.47;;;;;;;22.45;61.61;100752.91;4997974;28;20049;-75
2023/05/25 01:51:54;;;;;;;30.65;6.88;;;;;;;22.52;61.45;100761.19;5013616;28;20057;-74
2023/05/25 01:54:49;;;;;;;29.20;8.27;;;;;;;22.58;61.22;100759.63;5004728;28;20038;-74
2023/05/25 01:57:44;;;;;;;23.23;6.30;;;;;;;22.51;61.52;100760.41;5023115;28;20049;-74
2023/05/25 02:00:37;;;;;;;29.40;6.50;;;;;;;22.56;60.70;100756.44;5005739;28;20042;-74
2023/05/25 02:03:31;;;;;;;21.83;6.72;;;;;;;22.62;60.42;100749.31;5009164;28;20069;-74
2023/05/25 02:06:26;;;;;;;14.15;3.47;;;;;;;22.64;60.46;100758.03;5018402;28;20497;-75
2023/05/25 02:09:20;;;;;;;18.25;4.63;;;;;;;22.61;60.42;100765.16;5019760;28;20176;-75
2023/05/25 02:12:16;;;;;;;15.32;4.75;;;;;;;22.66;60.90;100772.28;5018470;28;20046;-75
2023/05/25 02:15:11;;;;;;;8.45;3.22;;;;;;;22.73;60.78;100766.00;5004728;28;20041;-74
2023/05/25 02:18:03;;;;;;;10.60;3.78;;;;;;;22.60;61.54;100769.13;5123149;22;20052;-79
2023/05/25 02:20:58;;;;;;;12.23;4.20;;;;;;;22.46;61.60;100765.53;5081942;28;20055;-79
2023/05/25 02:23:53;;;;;;;10.45;3.15;;;;;;;22.62;60.60;100749.31;5081340;28;20032;-80
2023/05/25 02:26:47;;;;;;;7.18;2.95;;;;;;;22.70;60.89;100745.38;5082155;28;20051;-82
2023/05/25 02:29:40;;;;;;;9.15;3.90;;;;;;;22.75;61.13;100746.97;5082222;28;20538;-81
2023/05/25 02:32:34;;;;;;;7.32;4.00;;;;;;;22.64;61.29;100758.03;5078896;28;20051;-79
2023/05/25 02:35:29;;;;;;;6.53;3.88;;;;;;;22.52;60.91;100761.19;5082241;28;20434;-80
2023/05/25 02:38:20;;;;;;;5.97;2.97;;;;;;;22.51;61.14;100754.06;5077904;28;20047;-79
2023/05/25 02:41:16;;;;;;;9.70;4.35;;;;;;;22.59;60.67;100753.69;5083623;28;20051;-79
2023/05/25 02:44:11;;;;;;;8.27;3.47;;;;;;;22.68;60.88;100749.72;5081252;28;20052;-79
2023/05/25 02:47:07;;;;;;;8.88;3.40;;;;;;;22.71;60.94;100741.41;5079154;28;20043;-80
2023/05/25 02:49:59;;;;;;;11.65;3.78;;;;;;;22.71;60.68;100738.66;5082530;28;20067;-81
2023/05/25 02:52:51;;;;;;;;;;;;;;;22.77;60.51;100737.06;5081338;28;20036;-78
2023/05/25 02:55:46;;;;;;;9.52;2.92;;;;;;;22.80;60.08;100722.41;5077693;28;19916;-80
2023/05/25 02:58:43;;;;;;;19.90;3.50;;;;;;;22.71;59.90;100719.25;5081183;28;20040;-80
2023/05/25 03:01:38;;;;;;;287.63;51.03;;;;;;;22.71;60.49;100727.56;5078824;28;20044;-78
2023/05/25 03:04:33;;;;;;;24.25;6.47;;;;;;;22.57;60.50;100731.09;5074030;28;20403;-79
2023/05/25 03:07:25;;;;;;;11.63;4.55;;;;;;;22.61;60.41;100731.09;5076161;28;20055;-80
2023/05/25 03:10:20;;;;;;;6.43;3.33;;;;;;;22.52;59.79;100739.03;5073984;28;20111;-79
2023/05/25 03:13:15;;;;;;;6.97;3.08;;;;;;;22.37;61.25;100745.75;5077584;28;20051;-77
2023/05/25 03:16:07;;;;;;;5.97;2.40;;;;;;;22.34;60.52;100754.84;5075401;28;20044;-78
2023/05/25 03:19:02;;;;;;;6.68;3.33;;;;;;;22.28;60.97;100761.97;5074681;28;20514;-78
2023/05/25 03:21:55;;;;;;;4.82;2.70;;;;;;;22.43;60.52;100777.44;5076253;28;20047;-79
2023/05/25 03:24:49;;;;;;;4.68;2.00;;;;;;;22.27;59.33;100779.78;5074254;28;20423;-79
2023/05/25 03:27:44;;;;;;;5.32;2.55;;;;;;;21.85;60.76;100789.50;5075110;28;20044;-79
2023/05/25 03:30:38;;;;;;;6.63;2.67;;;;;;;21.43;63.39;100798.41;5075463;28;20048;-80
2023/05/25 03:33:34;;;;;;;4.35;2.70;;;;;;;21.51;63.93;100804.78;5078858;28;20040;-79
2023/05/25 03:36:26;;;;;;;7.45;2.67;;;;;;;21.60;63.13;100819.03;5076159;28;20541;-79
2023/05/25 03:39:20;;;;;;;2.95;2.40;;;;;;;20.91;66.69;100818.97;5074370;28;20526;-77
2023/05/25 03:42:13;;;;;;;3.55;2.50;;;;;;;21.17;64.29;100820.78;5078005;28;20056;-77
2023/05/25 03:45:06;;;;;;;7.13;2.58;;;;;;;20.10;67.91;100835.47;5075730;28;20047;-79
2023/05/25 03:48:00;;;;;;;7.07;2.60;;;;;;;20.76;67.32;100840.16;5073059;28;20111;-80
2023/05/25 03:50:56;;;;;;;5.15;2.30;;;;;;;21.40;64.70;100834.34;5076292;28;20059;-79
2023/05/25 03:53:51;;;;;;;5.10;2.75;;;;;;;21.31;63.57;100827.19;5073844;28;20043;-79
2023/05/25 03:56:46;;;;;;;5.18;2.50;;;;;;;21.24;65.60;100843.72;5077529;28;20055;-78
2023/05/25 03:59:38;;;;;;;3.10;2.30;;;;;;;21.72;63.36;100840.88;5076756;28;20043;-78
2023/05/25 04:02:30;;;;;;;4.15;2.47;;;;;;;21.74;62.24;100838.50;5073817;28;20055;-78
2023/05/25 04:05:25;;;;;;;3.92;1.98;;;;;;;21.97;62.09;100836.28;5076854;28;20071;-80
2023/05/25 04:08:23;;;;;;;3.08;1.85;;;;;;;22.17;61.54;100845.84;5074219;28;20052;-80
2023/05/25 04:11:18;;;;;;;5.82;2.72;;;;;;;22.34;60.77;100847.09;5077322;28;20521;-79
2023/05/25 04:14:13;;;;;;;11.48;2.33;;;;;;;22.39;60.50;100841.16;5075068;28;20044;-79
2023/05/25 04:17:05;;;;;;;2.97;2.08;;;;;;;22.46;60.47;100848.69;5073095;28;20055;-78
2023/05/25 04:19:59;;;;;;;3.90;2.03;;;;;;;22.49;59.95;100842.38;5076124;28;20059;-79
2023/05/25 04:22:54;;;;;;;3.78;2.25;;;;;;;22.46;60.08;100841.16;5074067;28;20059;-79
2023/05/25 04:25:49;;;;;;;3.25;1.95;;;;;;;22.50;59.62;100846.75;5078105;28;20043;-80
2023/05/25 04:28:44;;;;;;;5.03;1.92;;;;;;;22.48;59.42;100847.13;5074839;28;20052;-79
2023/05/25 04:31:46;;;;;;;2.53;1.88;;;;;;;22.48;59.78;100843.56;5071884;28;20044;-81
2023/05/25 04:34:41;;;;;;;5.70;1.73;;;;;;;22.54;59.38;100850.31;5076559;28;20043;-79
2023/05/25 04:37:45;;;;;;;6.88;2.33;;;;;;;22.51;59.37;100848.31;5072822;28;20079;-80
2023/05/25 04:40:35;;;;;;;;;;;;;;;22.49;59.22;100856.22;5073619;28;20043;-80
2023/05/25 04:43:29;;;;;;;3.25;2.05;;;;;;;22.47;59.04;100853.06;5073702;28;19912;-79
2023/05/25 04:46:24;;;;;;;3.80;1.65;;;;;;;22.53;59.20;100857.03;5077295;28;20043;-78
2023/05/25 04:49:16;;;;;;;;;;;;;;;22.35;57.53;100856.19;5074077;28;20052;-83
2023/05/25 04:52:08;;;;;;;;;;;;;;;21.99;58.34;100856.03;5088489;28;19912;-84
2023/05/25 04:55:00;;;;;;;;;;;;;;;21.92;59.99;100849.66;5077368;28;19916;-83
2023/05/25 04:57:54;;;;;;;;;;;;;;;22.04;58.92;100857.66;5067830;28;19912;-83
2023/05/25 05:00:46;;;;;;;;;;;;;;;21.92;58.50;100856.00;5072646;28;19912;-81
2023/05/25 05:03:38;;;;;;;;;;;;;;;21.83;58.28;100858.34;5076239;28;19912;-82
2023/05/25 05:06:30;;;;;;;;;;;;;;;21.76;58.59;100864.63;5074100;28;19912;-82
2023/05/25 05:09:23;;;;;;;;;;;;;;;21.76;58.66;100874.91;5078010;28;19913;-81
2023/05/25 05:12:14;;;;;;;;;;;;;;;21.81;58.59;100888.38;5073607;28;19913;-82
2023/05/25 05:15:10;;;;;;;;;;;;;;;21.85;58.31;100894.72;5067276;28;19916;-82
2023/05/25 05:18:01;;;;;;;;;;;;;;;21.80;58.63;100902.59;5070216;28;19913;-82
2023/05/25 05:20:52;;;;;;;;;;;;;;;21.67;58.70;100900.16;5058502;28;19912;-82
2023/05/25 05:23:46;;;;;;;;;;;;;;;21.44;60.07;100907.09;5071959;28;19916;-83
2023/05/25 05:26:37;;;;;;;;;;;;;;;21.50;60.22;100916.63;5062001;28;19913;-81
2023/05/25 05:29:27;;;;;;;;;;;;;;;21.56;60.45;100926.97;5069640;28;19912;-83
2023/05/25 05:32:20;;;;;;;;;;;;;;;21.27;61.17;100922.41;5071846;28;19913;-80
2023/05/25 05:35:09;;;;;;;;;;;;;;;21.18;61.50;100922.69;5075504;28;19916;-80
2023/05/25 05:38:08;;;;;;;;;;;;;;;21.00;61.90;100930.03;5071376;28;19913;-80
2023/05/25 05:41:00;;;;;;;;;;;;;;;20.92;62.22;100947.72;5072033;28;19912;-81
2023/05/25 05:43:52;;;;;;;;;;;;;;;20.98;62.57;100946.19;5075720;28;19912;-82
2023/05/25 05:46:44;;;;;;;;;;;;;;;21.02;62.99;100941.50;5077966;28;19916;-81
2023/05/25 05:49:36;;;;;;;;;;;;;;;21.02;63.34;100946.25;5077412;28;19912;-78
2023/05/25 05:52:28;;;;;;;;;;;;;;;21.05;62.67;100946.28;5074473;28;19912;-80
2023/05/25 05:55:20;;;;;;;;;;;;;;;21.05;63.68;100956.53;5077957;28;19916;-80
2023/05/25 05:58:12;;;;;;;;;;;;;;;21.03;63.64;100951.38;5073350;28;19912;-82
2023/05/25 06:01:02;;;;;;;;;;;;;;;21.03;64.38;100956.91;5075724;28;20292;-83
2023/05/25 06:03:54;;;;;;;;;;;;;;;21.03;64.04;100962.44;5078336;28;19918;-84
2023/05/25 06:06:46;;;;;;;;;;;;;;;20.90;65.61;100969.41;5075793;28;19912;-83
2023/05/25 06:09:36;;;;;;;;;;;;;;;20.27;68.59;100967.44;5073281;28;19920;-81
2023/05/25 06:12:28;;;;;;;;;;;;;;;19.72;71.78;100968.22;5080267;28;19912;-85
2023/05/25 06:15:20;;;;;;;;;;;;;;;19.25;73.78;100974.91;5079939;28;20382;-82
2023/05/25 06:18:12;;;;;;;;;;;;;;;19.03;75.50;100972.94;5072542;28;20303;-85
2023/05/25 06:21:04;;;;;;;;;;;;;;;19.05;77.63;100978.88;5073657;28;19912;-82
2023/05/25 06:23:56;;;;;;;;;;;;;;;19.02;76.48;100977.66;5062598;28;19916;-82
2023/05/25 06:26:48;;;;;;;;;;;;;;;19.37;76.05;100982.22;5066837;28;19912;-83
2023/05/25 06:29:38;;;;;;;;;;;;;;;19.87;73.97;100986.59;5074716;28;19912;-77
2023/05/25 06:32:28;;;;;;;;;;;;;;;20.28;69.44;100982.06;5066109;28;19920;-82
2023/05/25 06:35:18;;;;;;;;;;;;;;;20.59;67.12;100990.00;5073979;28;19917;-81
2023/05/25 06:38:10;;;;;;;;;;;;;;;20.81;65.96;100996.56;5074323;28;19913;-79
2023/05/25 06:41:03;;;;;;;;;;;;;;;20.31;66.43;101001.47;5081291;28;19912;-79
2023/05/25 06:43:56;;;;;;;;;;;;;;;20.35;66.51;100999.56;5078942;28;19913;-77
2023/05/25 06:47:08;;;;;;;;;;;;;;;20.15;67.49;101003.59;5075862;28;20322;-81
2023/05/25 06:50:00;;;;;;;;;;;;;;;20.25;67.41;101005.72;5082364;28;19912;-83
2023/05/25 06:52:54;;;;;;;11.05;4.32;;;;;;;21.32;68.41;101010.56;5071333;28;20383;-79
2023/05/25 06:55:49;;;;;;;10.48;3.90;;;;;;;21.85;66.87;101016.56;5081714;28;20040;-79
2023/05/25 06:58:38;;;;;;;6.88;2.83;;;;;;;21.96;63.45;101011.91;5063423;28;20408;-79
2023/05/25 07:01:32;;;;;;;6.90;3.33;;;;;;;22.03;64.40;101017.53;5070622;28;20055;-79
2023/05/25 07:04:27;;;;;;;12.38;3.38;;;;;;;22.16;62.87;101013.25;5081641;28;20040;-81
2023/05/25 07:07:22;;;;;;;17.83;3.65;;;;;;;22.21;62.04;101014.06;5074527;28;20033;-80
2023/05/25 07:10:14;;;;;;;4.47;2.88;;;;;;;22.06;62.00;101019.50;5068579;28;20044;-79
2023/05/25 07:13:04;;;;;;;;;;;;;;;22.15;62.48;101025.50;5071537;28;20039;-79
2023/05/25 07:15:56;;;;;;;;;;;;;;;22.20;62.20;101018.78;5070557;28;19916;-77
2023/05/25 07:18:48;;;;;;;;;;;;;;;22.27;61.68;101023.59;5076943;28;19912;-77
2023/05/25 07:21:40;;;;;;;;;;;;;;;22.30;61.25;101017.28;5077520;28;20299;-77
2023/05/25 07:24:31;;;;;;;;;;;;;;;22.32;60.64;101017.69;5075642;28;19912;-78
2023/05/25 07:27:24;;;;;;;;;;;;;;;22.39;60.93;101023.28;5078059;28;19916;-77
2023/05/25 07:30:12;;;;;;;;;;;;;;;22.30;59.57;101020.84;5076810;28;20302;-78
2023/05/25 07:32:59;;;;;;;;;;;;;;;22.14;59.24;101028.69;5074438;28;19916;-78
2023/05/25 07:35:50;;;;;;;;;;;;;;;21.98;59.31;101034.50;5079405;28;19916;-77
2023/05/25 07:38:42;;;;;;;;;;;;;;;21.93;59.18;101039.56;5077050;28;20290;-78
2023/05/25 07:41:32;;;;;;;;;;;;;;;21.97;60.34;101040.41;5079911;28;19916;-77
2023/05/25 07:44:24;;;;;;;;;;;;;;;22.14;59.36;101040.56;5078694;28;19916;-77
2023/05/25 07:47:16;;;;;;;;;;;;;;;22.25;58.43;101042.59;5075594;28;19912;-78
2023/05/25 07:50:08;;;;;;;;;;;;;;;22.39;58.72;101045.44;5078074;28;19912;-77
2023/05/25 07:53:00;;;;;;;;;;;;;;;22.37;58.54;101051.38;5077457;28;19912;-76
2023/05/25 07:55:52;;;;;;;;;;;;;;;22.42;58.12;101047.44;5075448;28;19916;-78
2023/05/25 07:58:44;;;;;;;;;;;;;;;22.39;59.00;101051.00;5081838;28;19912;-79
2023/05/25 08:01:36;;;;;;;;;;;;;;;22.38;59.17;101052.97;5063028;28;19913;-78
2023/05/25 08:04:23;;;;;;;;;;;;;;;22.28;58.32;101061.22;5070997;28;19913;-77
2023/05/25 08:07:15;;;;;;;;;;;;;;;22.21;58.08;101055.59;5067249;28;19912;-78
2023/05/25 08:10:04;;;;;;;;;;;;;;;21.98;59.84;101062.19;5067712;28;19912;-78
2023/05/25 08:12:56;;;;;;;;;;;;;;;22.04;59.93;101074.50;5069981;28;19912;-78
2023/05/25 08:15:48;;;;;;;;;;;;;;;21.84;60.17;101083.41;5078924;28;19917;-77
2023/05/25 08:18:40;;;;;;;;;;;;;;;21.80;58.90;101077.81;5075587;28;19912;-79
2023/05/25 08:21:33;;;;;;;;;;;;;;;21.57;59.04;101074.47;5073978;28;20376;-77
2023/05/25 08:24:25;;;;;;;;;;;;;;;21.64;59.60;101083.59;5077474;28;19913;-76
2023/05/25 08:27:17;;;;;;;;;;;;;;;21.83;58.77;101084.59;5063898;28;19920;-77
2023/05/25 08:30:10;;;;;;;;;;;;;;;21.91;59.53;101095.31;5063630;28;19920;-76
2023/05/25 08:32:59;;;;;;;;;;;;;;;22.03;58.65;101089.53;5073736;28;19912;-75
2023/05/25 08:35:51;;;;;;;;;;;;;;;21.76;58.08;101090.84;5075212;28;19916;-77
2023/05/25 08:38:43;;;;;;;;;;;;;;;21.66;58.90;101097.06;5082708;28;20395;-78
2023/05/25 08:41:36;;;;;;;;;;;;;;;21.67;59.79;101095.91;5078715;28;20279;-78
2023/05/25 08:44:28;;;;;;;;;;;;;;;21.41;60.82;101101.56;5082595;28;19912;-76
2023/05/25 08:47:23;;;;;;;;;;;;;;;21.37;60.96;101100.75;5079619;28;19912;-78
2023/05/25 08:50:15;;;;;;;;;;;;;;;21.27;61.29;101107.75;5076016;28;19912;-78
2023/05/25 08:53:10;;;;;;;;;;;;;;;21.28;62.13;101104.59;5080858;28;19912;-77
2023/05/25 08:56:02;;;;;;;;;;;;;;;21.51;61.54;101106.41;5075902;28;20376;-75
2023/05/25 08:59:17;;;;;;;;;;;;;;;21.40;61.43;101106.31;5073671;28;20295;-75
2023/05/25 09:02:13;;;;;;;;;;;;;;;21.43;61.84;101111.09;5069420;28;19912;-76
2023/05/25 09:05:05;;;;;;;;;;;;;;;21.51;61.65;101103.66;5076503;28;19912;-77
2023/05/25 09:07:56;;;;;;;;;;;;;;;21.64;60.99;101111.28;5076909;28;19912;-76
2023/05/25 09:10:48;;;;;;;;;;;;;;;21.64;60.76;101113.25;5076015;28;19912;-76
2023/05/25 09:13:41;;;;;;;;;;;;;;;21.88;60.85;101121.03;5078938;28;19912;-76
2023/05/25 09:16:33;;;;;;;;;;;;;;;21.81;60.56;101115.41;5077861;28;19916;-75
2023/05/25 09:19:25;;;;;;;;;;;;;;;21.99;60.12;101121.91;5076355;28;19912;-78
2023/05/25 09:22:17;;;;;;;;;;;;;;;22.26;60.60;101122.53;5080170;28;19913;-76
2023/05/25 09:25:10;;;;;;;;;;;;;;;22.43;58.69;101121.09;5077960;28;20298;-76
2023/05/25 09:28:00;;;;;;;;;;;;;;;22.60;58.47;101125.97;5075621;28;19916;-77
2023/05/25 09:30:52;;;;;;;;;;;;;;;22.70;57.22;101127.19;5080471;28;19912;-78
2023/05/25 09:33:44;;;;;;;;;;;;;;;22.68;57.63;101124.81;5078768;28;19916;-77
2023/05/25 09:36:37;;;;;;;;;;;;;;;22.73;57.29;101130.03;5078146;28;20378;-76
2023/05/25 09:39:29;;;;;;;;;;;;;;;22.90;55.99;101132.09;5077072;28;19912;-76
2023/05/25 09:42:21;;;;;;;;;;;;;;;22.96;53.69;101141.63;5075342;28;20314;-76
2023/05/25 09:45:13;;;;;;;;;;;;;;;22.94;55.31;101137.66;5081212;28;19971;-77
2023/05/25 09:48:05;;;;;;;;;;;;;;;22.99;54.46;101135.31;5076849;28;19912;-77
2023/05/25 09:50:57;;;;;;;;;;;;;;;23.02;54.94;101140.06;5075107;28;19912;-76
2023/05/25 09:53:50;;;;;;;;;;;;;;;23.22;52.92;101142.53;5079569;28;19912;-78
2023/05/25 09:56:42;;;;;;;;;;;;;;;23.29;52.39;101135.03;5077135;28;19916;-77
2023/05/25 09:59:34;;;;;;;;;;;;;;;23.39;52.62;101139.81;5080316;28;19916;-76
2023/05/25 10:02:26;;;;;;;;;;;;;;;23.45;51.58;101151.38;5078455;28;19912;-75
2023/05/25 10:05:15;;;;;;;;;;;;;;;23.22;53.15;101143.31;5073624;28;19921;-78
2023/05/25 10:08:08;;;;;;;;;;;;;;;23.42;50.09;101141.00;5064782;28;19912;-81
2023/05/25 10:11:00;;;;;;;;;;;;;;;23.66;47.33;101145.09;5078747;28;19916;-79
2023/05/25 10:13:55;;;;;;;;;;;;;;;23.49;49.36;101132.72;5083144;28;19942;-81
2023/05/25 10:16:49;;;;;;;;;;;;;;;23.63;47.62;101141.09;5086172;28;19916;-81
2023/05/25 10:19:44;;;;;;;;;;;;;;;23.83;47.01;101136.75;5083989;28;20303;-80
2023/05/25 10:22:37;;;;;;;;;;;;;;;23.78;49.22;101134.38;5092117;28;19920;-80
2023/05/25 10:25:40;;;;;;;;;;;;;;;23.67;48.34;101130.78;5092713;28;20390;-81
2023/05/25 10:28:40;;;;;;;;;;;;;;;23.87;46.89;101125.66;5094291;28;19916;-80
2023/05/25 10:31:32;;;;;;;;;;;;;;;23.98;46.24;101122.88;5093865;28;20291;-79
2023/05/25 10:34:24;;;;;;;;;;;;;;;23.91;46.25;101126.47;5088733;28;19912;-81
2023/05/25 10:37:17;;;;;;;;;;;;;;;24.13;44.49;101130.81;5092219;28;19916;-81
2023/05/25 10:40:11;;;;;;;;;;;;;;;24.28;44.58;101120.50;5090481;28;19912;-81
2023/05/25 10:43:03;;;;;;;;;;;;;;;24.21;45.85;101113.00;5067961;28;19917;-77
2023/05/25 10:45:56;;;;;;;;;;;;;;;24.37;43.17;101118.13;5070489;28;19920;-79
2023/05/25 10:48:51;;;;;;;;;;;;;;;24.31;41.14;101118.94;5088133;28;19912;-80
2023/05/25 10:51:43;;;;;;;;;;;;;;;24.20;45.43;101127.28;5079081;28;19913;-80
2023/05/25 10:54:35;;;;;;;;;;;;;;;24.24;44.84;101122.50;5089645;28;20319;-79
2023/05/25 10:57:27;;;;;;;;;;;;;;;24.22;43.81;101114.59;5086746;28;19935;-79
2023/05/25 11:00:18;;;;;;;;;;;;;;;24.22;43.89;101117.38;5084522;28;20291;-79
2023/05/25 11:03:10;;;;;;;;;;;;;;;24.28;44.98;101120.50;5088419;28;19913;-79
2023/05/25 11:06:02;;;;;;;;;;;;;;;24.43;42.40;101113.75;5086629;28;20379;-79
2023/05/25 11:08:58;;;;;;;;;;;;;;;24.65;44.71;101112.50;5087863;28;19912;-80
2023/05/25 11:11:51;;;;;;;;;;;;;;;24.08;47.37;101110.97;5070994;28;19912;-80
2023/05/25 11:14:43;;;;;;;;;;;;;;;24.21;44.15;101110.22;5081441;28;20103;-77
2023/05/25 11:17:44;;;;;;;;;;;;;;;24.42;45.36;101103.84;5075676;28;19916;-80
2023/05/25 11:20:36;;;;;;;;;;;;;;;24.18;46.31;101105.44;5081470;28;19920;-80
2023/05/25 11:23:28;;;;;;;;;;;;;;;24.00;44.68;101101.06;5078067;28;19913;-79
2023/05/25 11:26:21;;;;;;;;;;;;;;;24.07;45.64;101092.72;5078460;28;19916;-79
2023/05/25 11:29:16;;;;;;;;;;;;;;;24.13;43.65;101089.13;5076915;28;19912;-80
2023/05/25 11:32:12;;;;;;;;;;;;;;;24.44;44.53;101090.31;5081416;28;19916;-79
2023/05/25 11:35:08;;;;;;;;;;;;;;;24.03;46.19;101084.38;5076790;28;19912;-80
2023/05/25 11:38:00;;;;;;;;;;;;;;;24.20;45.03;101082.81;5073779;28;19917;-79
2023/05/25 11:40:52;;;;;;;;;;;;;;;24.62;39.56;101084.72;5082853;28;19912;-79
2023/05/25 11:43:41;;;;;;;;;;;;;;;24.73;42.96;101079.91;5081830;28;19916;-79
2023/05/25 11:46:33;;;;;;;;;;;;;;;24.33;46.12;101083.97;5082733;28;19913;-80
2023/05/25 11:49:26;;;;;;;;;;;;;;;24.06;46.09;101083.59;5081571;28;19931;-78
2023/05/25 11:52:18;;;;;;;;;;;;;;;24.44;43.22;101084.75;5078817;28;19912;-80
2023/05/25 11:55:12;;;;;;;;;;;;;;;24.10;43.30;101086.38;5078097;28;19912;-80
2023/05/25 11:58:04;;;;;;;;;;;;;;;24.23;45.33;101087.56;5078249;28;19921;-81
2023/05/25 12:00:56;;;;;;;;;;;;;;;24.71;39.04;101073.94;5077767;28;19917;-80
2023/05/25 12:03:54;;;;;;;;;;;;;;;25.14;40.05;101064.22;5081721;28;19912;-79
2023/05/25 12:06:46;;;;;;;;;;;;;;;25.59;40.13;101069.19;5079642;28;19912;-80
2023/05/25 12:09:38;;;;;;;;;;;;;;;25.41;40.08;101063.69;5079512;28;19916;-80
2023/05/25 12:12:30;;;;;;;;;;;;;;;25.39;39.08;101069.69;5074119;28;20287;-81
2023/05/25 12:15:21;;;;;;;;;;;;;;;25.65;39.53;101057.16;5077908;28;19916;-79
2023/05/25 12:18:11;;;;;;;;;;;;;;;25.67;39.43;101048.41;5076473;28;20011;-78
2023/05/25 12:21:06;;;;;;;;;;;;;;;25.62;39.69;101048.84;5079303;28;19916;-79
2023/05/25 12:23:58;;;;;;;;;;;;;;;25.77;38.52;101047.53;5083428;28;19912;-80
2023/05/25 12:26:49;;;;;;;;;;;;;;;25.94;36.67;101041.03;5077436;28;20295;-78
2023/05/25 12:29:46;;;;;;;;;;;;;;;25.79;39.26;101039.56;5076466;28;19917;-81
2023/05/25 12:32:51;;;;;;;;;;;;;;;25.88;39.57;101037.09;5080914;28;19912;-79
2023/05/25 12:35:48;;;;;;;;;;;;;;;25.95;38.63;101031.47;5068363;28;19916;-80
2023/05/25 12:38:40;;;;;;;;;;;;;;;26.03;37.65;101032.16;5081738;28;19912;-78
2023/05/25 12:41:32;;;;;;;;;;;;;;;26.05;37.12;101027.78;5068282;28;20379;-80
2023/05/25 12:44:22;;;;;;;;;;;;;;;25.98;37.55;101031.41;5073865;28;19912;-79
2023/05/25 12:47:22;;;;;;;;;;;;;;;26.13;37.44;101034.06;5079241;28;20299;-79
2023/05/25 12:50:15;;;;;;;;;;;;;;;26.19;37.17;101038.78;5070770;28;20317;-79
2023/05/25 12:53:04;;;;;;;;;;;;;;;25.98;36.64;101030.63;5073949;28;19912;-78
2023/05/25 12:56:11;;;;;;;;;;;;;;;25.97;36.39;101031.81;5079402;28;19916;-78
2023/05/25 12:59:15;;;;;;;;;;;;;;;26.02;35.67;101030.59;5073737;28;20327;-79
2023/05/25 13:02:02;;;;;;;;;;;;;;;25.96;36.67;101027.44;5079492;28;19916;-78
2023/05/25 13:04:51;;;;;;;;;;;;;;;25.82;37.83;101028.38;5074883;28;19916;-80
2023/05/25 13:07:41;;;;;;;;;;;;;;;25.98;37.04;101031.41;5073631;28;19921;-82
2023/05/25 13:10:33;;;;;;;;;;;;;;;25.94;37.92;101030.66;5077605;28;20302;-77
2023/05/25 13:13:25;;;;;;;;;;;;;;;26.05;38.43;101025.00;5057032;28;19913;-77
2023/05/25 13:16:17;;;;;;;;;;;;;;;25.92;37.34;101015.53;5075460;28;19920;-79
2023/05/25 13:19:06;;;;;;;;;;;;;;;25.88;38.16;101015.59;5076492;28;19916;-79
2023/05/25 13:21:58;;;;;;;;;;;;;;;25.78;37.98;101010.91;5080357;28;19915;-82
2023/05/25 13:24:52;;;;;;;;;;;;;;;25.75;37.67;101013.72;5072186;28;21304;-79
2023/05/25 13:27:46;;;;;;;;;;;;;;;25.86;37.08;101012.41;5074667;28;19916;-78
2023/05/25 13:30:38;;;;;;;;;;;;;;;25.59;39.43;101008.69;5077760;28;20295;-80
2023/05/25 13:33:28;;;;;;;;;;;;;;;25.67;39.07;100998.25;5080729;28;19912;-79
2023/05/25 13:36:20;;;;;;;;;;;;;;;25.84;36.86;101000.09;5073002;28;19916;-79
2023/05/25 13:39:12;;;;;;;;;;;;;;;25.92;38.25;101001.63;5081250;28;20297;-77
2023/05/25 13:42:01;;;;;;;;;;;;;;;25.95;37.46;101003.59;5078833;28;19912;-80
2023/05/25 13:44:53;;;;;;;;;;;;;;;25.84;38.26;100997.31;5077339;28;19912;-77
2023/05/25 13:47:45;;;;;;;;;;;;;;;25.92;38.23;100998.81;5073632;28;19912;-80
2023/05/25 13:50:37;;;;;;;;;;;;;;;25.89;37.14;100994.09;5079286;28;19912;-78
2023/05/25 13:53:26;;;;;;;;;;;;;;;25.63;38.67;100986.38;5079970;28;20283;-77
2023/05/25 13:56:18;;;;;;;;;;;;;;;25.91;36.91;100991.66;5077264;28;19920;-79
2023/05/25 13:59:10;;;;;;;;;;;;;;;25.98;37.29;100986.03;5074984;28;19913;-80
2023/05/25 14:02:02;;;;;;;;;;;;;;;25.94;36.80;100985.28;5081591;28;20371;-78
2023/05/25 14:04:53;;;;;;;;;;;;;;;25.72;37.54;100995.03;5070194;28;20288;-78
2023/05/25 14:07:45;;;;;;;;;;;;;;;25.46;38.78;100988.84;5058695;28;19913;-78
2023/05/25 14:10:37;;;;;;;;;;;;;;;24.92;38.92;100987.66;5067656;28;19912;-77
2023/05/25 14:13:29;;;;;;;;;;;;;;;25.41;39.05;100975.38;5065996;28;20379;-77
2023/05/25 14:16:21;;;;;;;;;;;;;;;25.21;37.22;100982.69;5066298;28;20315;-79
2023/05/25 14:19:13;;;;;;;;;;;;;;;25.43;37.90;100984.13;5065125;28;19917;-77
2023/05/25 14:22:05;;;;;;;;;;;;;;;25.37;37.38;100988.53;5061320;28;19916;-79
2023/05/25 14:24:57;;;;;;;;;;;;;;;25.31;40.30;100984.59;5063935;28;19913;-78
2023/05/25 14:27:48;;;;;;;;;;;;;;;25.23;39.13;100980.28;5060845;28;19912;-80
2023/05/25 14:30:40;;;;;;;;;;;;;;;25.39;38.34;100980.56;5064808;28;19912;-78